sensor_id;sensor_type;location;lat;lon;timestamp;P1;durP1;ratioP1;P2;durP2;ratioP2
52972;SDS011;38837;48.916;2.336;2023-08-17T00:00:39;6.68;;;4.82;;
52972;SDS011;38837;48.916;2.336;2023-08-17T00:02:41;7.65;;;4.70;;
52972;SDS011;38837;48.916;2.336;2023-08-17T00:04:43;8.85;;;4.65;;
52972;SDS011;38837;48.916;2.336;2023-08-17T00:06:45;8.18;;;5.20;;
52972;SDS011;38837;48.916;2.336;2023-08-17T00:08:48;6.97;;;5.27;;
52972;SDS011;38837;48.916;2.336;2023-08-17T00:10:50;6.95;;;4.45;;
52972;SDS011;38837;48.916;2.336;2023-08-17T00:12:52;6.90;;;5.07;;
52972;SDS011;38837;48.916;2.336;2023-08-17T00:14:53;8.77;;;5.18;;
52972;SDS011;38837;48.916;2.336;2023-08-17T00:16:55;6.22;;;4.57;;
52972;SDS011;38837;48.916;2.336;2023-08-17T00:18:57;5.03;;;4.53;;
52972;SDS011;38837;48.916;2.336;2023-08-17T00:20:59;7.00;;;4.82;;
52972;SDS011;38837;48.916;2.336;2023-08-17T00:23:01;7.72;;;5.10;;
52972;SDS011;38837;48.916;2.336;2023-08-17T00:25:03;10.57;;;5.05;;
52972;SDS011;38837;48.916;2.336;2023-08-17T00:27:06;7.40;;;5.00;;
52972;SDS011;38837;48.916;2.336;2023-08-17T00:29:07;5.95;;;4.75;;
52972;SDS011;38837;48.916;2.336;2023-08-17T00:31:09;6.88;;;4.78;;
52972;SDS011;38837;48.916;2.336;2023-08-17T00:33:11;5.95;;;4.25;;
52972;SDS011;38837;48.916;2.336;2023-08-17T00:35:13;6.32;;;4.65;;
52972;SDS011;38837;48.916;2.336;2023-08-17T00:37:15;7.53;;;5.45;;
52972;SDS011;38837;48.916;2.336;2023-08-17T00:39:17;7.43;;;5.07;;
52972;SDS011;38837;48.916;2.336;2023-08-17T00:41:20;8.18;;;5.03;;
52972;SDS011;38837;48.916;2.336;2023-08-17T00:43:22;7.03;;;4.50;;
52972;SDS011;38837;48.916;2.336;2023-08-17T00:45:24;6.13;;;4.65;;
52972;SDS011;38837;48.916;2.336;2023-08-17T00:47:26;5.85;;;5.00;;
52972;SDS011;38837;48.916;2.336;2023-08-17T00:49:28;5.25;;;4.05;;
52972;SDS011;38837;48.916;2.336;2023-08-17T00:51:30;6.78;;;4.95;;
52972;SDS011;38837;48.916;2.336;2023-08-17T00:53:33;10.90;;;4.85;;
52972;SDS011;38837;48.916;2.336;2023-08-17T00:55:34;7.43;;;4.95;;
52972;SDS011;38837;48.916;2.336;2023-08-17T00:57:37;5.30;;;4.57;;
52972;SDS011;38837;48.916;2.336;2023-08-17T00:59:40;6.85;;;4.57;;
52972;SDS011;38837;48.916;2.336;2023-08-17T01:01:47;5.07;;;4.38;;
52972;SDS011;38837;48.916;2.336;2023-08-17T01:03:49;6.85;;;4.60;;
52972;SDS011;38837;48.916;2.336;2023-08-17T01:05:51;6.90;;;5.10;;
52972;SDS011;38837;48.916;2.336;2023-08-17T01:07:53;5.00;;;4.50;;
52972;SDS011;38837;48.916;2.336;2023-08-17T01:09:55;6.00;;;4.50;;
52972;SDS011;38837;48.916;2.336;2023-08-17T01:12:00;5.45;;;4.35;;
52972;SDS011;38837;48.916;2.336;2023-08-17T01:14:10;7.55;;;4.43;;
52972;SDS011;38837;48.916;2.336;2023-08-17T01:16:33;5.63;;;4.63;;
52972;SDS011;38837;48.916;2.336;2023-08-17T01:18:40;5.93;;;4.95;;
52972;SDS011;38837;48.916;2.336;2023-08-17T01:20:42;4.95;;;4.38;;
52972;SDS011;38837;48.916;2.336;2023-08-17T01:22:46;6.90;;;4.60;;
52972;SDS011;38837;48.916;2.336;2023-08-17T01:24:54;5.25;;;4.28;;
52972;SDS011;38837;48.916;2.336;2023-08-17T01:26:58;5.45;;;4.20;;
52972;SDS011;38837;48.916;2.336;2023-08-17T01:29:00;5.95;;;4.30;;
52972;SDS011;38837;48.916;2.336;2023-08-17T01:31:08;5.38;;;4.63;;
52972;SDS011;38837;48.916;2.336;2023-08-17T01:33:18;6.45;;;4.43;;
52972;SDS011;38837;48.916;2.336;2023-08-17T01:37:50;5.50;;;4.28;;
52972;SDS011;38837;48.916;2.336;2023-08-17T01:39:55;5.70;;;4.07;;
52972;SDS011;38837;48.916;2.336;2023-08-17T01:41:59;5.65;;;4.53;;
52972;SDS011;38837;48.916;2.336;2023-08-17T01:44:01;5.90;;;4.13;;
52972;SDS011;38837;48.916;2.336;2023-08-17T01:46:04;5.30;;;4.45;;
52972;SDS011;38837;48.916;2.336;2023-08-17T01:48:06;6.72;;;4.45;;
52972;SDS011;38837;48.916;2.336;2023-08-17T01:50:08;7.47;;;5.13;;
52972;SDS011;38837;48.916;2.336;2023-08-17T01:52:10;4.93;;;4.05;;
52972;SDS011;38837;48.916;2.336;2023-08-17T01:54:12;5.65;;;4.47;;
52972;SDS011;38837;48.916;2.336;2023-08-17T01:56:14;5.97;;;4.65;;
52972;SDS011;38837;48.916;2.336;2023-08-17T01:58:16;5.13;;;4.30;;
52972;SDS011;38837;48.916;2.336;2023-08-17T02:00:18;6.40;;;4.25;;
52972;SDS011;38837;48.916;2.336;2023-08-17T02:02:20;6.75;;;4.50;;
52972;SDS011;38837;48.916;2.336;2023-08-17T02:04:23;7.93;;;4.70;;
52972;SDS011;38837;48.916;2.336;2023-08-17T02:06:25;5.40;;;4.10;;
52972;SDS011;38837;48.916;2.336;2023-08-17T02:08:27;5.68;;;4.47;;
52972;SDS011;38837;48.916;2.336;2023-08-17T02:10:29;5.20;;;4.50;;
52972;SDS011;38837;48.916;2.336;2023-08-17T02:12:31;5.38;;;4.50;;
52972;SDS011;38837;48.916;2.336;2023-08-17T02:14:32;5.50;;;4.43;;
52972;SDS011;38837;48.916;2.336;2023-08-17T02:16:35;5.60;;;4.50;;
52972;SDS011;38837;48.916;2.336;2023-08-17T02:18:37;5.88;;;4.72;;
52972;SDS011;38837;48.916;2.336;2023-08-17T02:20:38;6.53;;;4.45;;
52972;SDS011;38837;48.916;2.336;2023-08-17T02:22:40;6.15;;;4.82;;
52972;SDS011;38837;48.916;2.336;2023-08-17T02:24:42;7.43;;;4.53;;
52972;SDS011;38837;48.916;2.336;2023-08-17T02:26:44;9.40;;;4.45;;
52972;SDS011;38837;48.916;2.336;2023-08-17T02:28:46;5.43;;;4.35;;
52972;SDS011;38837;48.916;2.336;2023-08-17T02:30:48;5.93;;;4.75;;
52972;SDS011;38837;48.916;2.336;2023-08-17T02:32:50;6.30;;;4.65;;
52972;SDS011;38837;48.916;2.336;2023-08-17T02:34:52;5.60;;;4.18;;
52972;SDS011;38837;48.916;2.336;2023-08-17T02:36:54;5.00;;;4.45;;
52972;SDS011;38837;48.916;2.336;2023-08-17T02:38:56;5.68;;;4.40;;
52972;SDS011;38837;48.916;2.336;2023-08-17T02:40:58;5.20;;;4.70;;
52972;SDS011;38837;48.916;2.336;2023-08-17T02:42:59;5.68;;;4.18;;
52972;SDS011;38837;48.916;2.336;2023-08-17T02:45:01;7.00;;;4.78;;
52972;SDS011;38837;48.916;2.336;2023-08-17T02:47:03;6.50;;;4.93;;
52972;SDS011;38837;48.916;2.336;2023-08-17T02:49:05;7.00;;;4.10;;
52972;SDS011;38837;48.916;2.336;2023-08-17T02:51:07;5.05;;;4.30;;
52972;SDS011;38837;48.916;2.336;2023-08-17T02:53:09;7.13;;;4.45;;
52972;SDS011;38837;48.916;2.336;2023-08-17T02:55:11;5.68;;;4.50;;
52972;SDS011;38837;48.916;2.336;2023-08-17T02:57:13;6.88;;;4.88;;
52972;SDS011;38837;48.916;2.336;2023-08-17T02:59:15;6.03;;;4.47;;
52972;SDS011;38837;48.916;2.336;2023-08-17T03:01:17;6.70;;;4.55;;
52972;SDS011;38837;48.916;2.336;2023-08-17T03:03:19;7.03;;;4.47;;
52972;SDS011;38837;48.916;2.336;2023-08-17T03:05:21;7.28;;;4.78;;
52972;SDS011;38837;48.916;2.336;2023-08-17T03:07:22;7.25;;;5.18;;
52972;SDS011;38837;48.916;2.336;2023-08-17T03:09:25;6.05;;;4.53;;
52972;SDS011;38837;48.916;2.336;2023-08-17T03:11:27;9.43;;;5.30;;
52972;SDS011;38837;48.916;2.336;2023-08-17T03:13:29;8.48;;;5.22;;
52972;SDS011;38837;48.916;2.336;2023-08-17T03:15:31;4.97;;;4.47;;
52972;SDS011;38837;48.916;2.336;2023-08-17T03:17:32;6.03;;;4.80;;
52972;SDS011;38837;48.916;2.336;2023-08-17T03:19:34;7.20;;;4.35;;
52972;SDS011;38837;48.916;2.336;2023-08-17T03:21:36;7.90;;;4.93;;
52972;SDS011;38837;48.916;2.336;2023-08-17T03:23:39;6.60;;;4.78;;
52972;SDS011;38837;48.916;2.336;2023-08-17T03:25:41;7.22;;;4.95;;
52972;SDS011;38837;48.916;2.336;2023-08-17T03:27:43;4.93;;;4.28;;
52972;SDS011;38837;48.916;2.336;2023-08-17T03:29:45;6.03;;;4.80;;
52972;SDS011;38837;48.916;2.336;2023-08-17T03:31:47;8.63;;;5.15;;
52972;SDS011;38837;48.916;2.336;2023-08-17T03:33:50;5.57;;;4.30;;
52972;SDS011;38837;48.916;2.336;2023-08-17T03:35:52;7.13;;;4.05;;
52972;SDS011;38837;48.916;2.336;2023-08-17T03:37:54;8.18;;;4.63;;
52972;SDS011;38837;48.916;2.336;2023-08-17T03:39:56;6.07;;;4.35;;
52972;SDS011;38837;48.916;2.336;2023-08-17T03:41:58;4.97;;;4.05;;
52972;SDS011;38837;48.916;2.336;2023-08-17T03:44:00;7.35;;;4.25;;
52972;SDS011;38837;48.916;2.336;2023-08-17T03:46:01;5.60;;;4.30;;
52972;SDS011;38837;48.916;2.336;2023-08-17T03:48:05;7.13;;;4.93;;
52972;SDS011;38837;48.916;2.336;2023-08-17T03:50:08;6.00;;;4.35;;
52972;SDS011;38837;48.916;2.336;2023-08-17T03:52:11;5.15;;;4.30;;
52972;SDS011;38837;48.916;2.336;2023-08-17T03:54:13;4.75;;;4.00;;
52972;SDS011;38837;48.916;2.336;2023-08-17T03:56:14;7.10;;;5.05;;
52972;SDS011;38837;48.916;2.336;2023-08-17T03:58:17;6.97;;;4.68;;
52972;SDS011;38837;48.916;2.336;2023-08-17T04:00:19;8.02;;;4.88;;
52972;SDS011;38837;48.916;2.336;2023-08-17T04:02:21;6.03;;;4.53;;
52972;SDS011;38837;48.916;2.336;2023-08-17T04:04:23;4.50;;;3.88;;
52972;SDS011;38837;48.916;2.336;2023-08-17T04:06:25;6.45;;;4.90;;
52972;SDS011;38837;48.916;2.336;2023-08-17T04:08:26;6.00;;;4.68;;
52972;SDS011;38837;48.916;2.336;2023-08-17T04:10:29;8.35;;;5.03;;
52972;SDS011;38837;48.916;2.336;2023-08-17T04:12:31;9.02;;;5.18;;
52972;SDS011;38837;48.916;2.336;2023-08-17T04:14:33;5.47;;;4.25;;
52972;SDS011;38837;48.916;2.336;2023-08-17T04:16:35;8.73;;;4.78;;
52972;SDS011;38837;48.916;2.336;2023-08-17T04:18:36;5.85;;;4.82;;
52972;SDS011;38837;48.916;2.336;2023-08-17T04:20:38;6.15;;;4.53;;
52972;SDS011;38837;48.916;2.336;2023-08-17T04:22:40;5.80;;;4.45;;
52972;SDS011;38837;48.916;2.336;2023-08-17T04:24:42;5.20;;;4.05;;
52972;SDS011;38837;48.916;2.336;2023-08-17T04:26:43;7.88;;;5.45;;
52972;SDS011;38837;48.916;2.336;2023-08-17T04:28:45;6.22;;;4.03;;
52972;SDS011;38837;48.916;2.336;2023-08-17T04:30:47;5.70;;;4.35;;
52972;SDS011;38837;48.916;2.336;2023-08-17T04:32:49;5.18;;;4.65;;
52972;SDS011;38837;48.916;2.336;2023-08-17T04:34:54;6.38;;;4.57;;
52972;SDS011;38837;48.916;2.336;2023-08-17T04:36:56;6.00;;;4.18;;
52972;SDS011;38837;48.916;2.336;2023-08-17T04:38:57;4.75;;;3.75;;
52972;SDS011;38837;48.916;2.336;2023-08-17T04:40:59;7.72;;;4.85;;
52972;SDS011;38837;48.916;2.336;2023-08-17T04:43:01;5.60;;;4.40;;
52972;SDS011;38837;48.916;2.336;2023-08-17T04:45:03;6.10;;;4.60;;
52972;SDS011;38837;48.916;2.336;2023-08-17T04:47:06;4.22;;;3.83;;
52972;SDS011;38837;48.916;2.336;2023-08-17T04:49:07;6.00;;;4.53;;
52972;SDS011;38837;48.916;2.336;2023-08-17T04:51:09;5.50;;;4.25;;
52972;SDS011;38837;48.916;2.336;2023-08-17T04:53:11;5.05;;;3.72;;
52972;SDS011;38837;48.916;2.336;2023-08-17T04:55:13;5.45;;;4.60;;
52972;SDS011;38837;48.916;2.336;2023-08-17T04:57:15;7.72;;;4.47;;
52972;SDS011;38837;48.916;2.336;2023-08-17T04:59:17;7.65;;;4.07;;
52972;SDS011;38837;48.916;2.336;2023-08-17T05:01:19;5.10;;;4.57;;
52972;SDS011;38837;48.916;2.336;2023-08-17T05:03:21;8.10;;;4.75;;
52972;SDS011;38837;48.916;2.336;2023-08-17T05:05:34;7.93;;;4.50;;
52972;SDS011;38837;48.916;2.336;2023-08-17T05:07:36;5.75;;;4.40;;
52972;SDS011;38837;48.916;2.336;2023-08-17T05:09:38;6.38;;;4.43;;
52972;SDS011;38837;48.916;2.336;2023-08-17T05:11:40;6.53;;;4.55;;
52972;SDS011;38837;48.916;2.336;2023-08-17T05:13:42;6.25;;;4.55;;
52972;SDS011;38837;48.916;2.336;2023-08-17T05:15:44;8.35;;;4.53;;
52972;SDS011;38837;48.916;2.336;2023-08-17T05:17:46;6.30;;;4.43;;
52972;SDS011;38837;48.916;2.336;2023-08-17T05:19:48;6.72;;;4.72;;
52972;SDS011;38837;48.916;2.336;2023-08-17T05:21:50;5.78;;;4.53;;
52972;SDS011;38837;48.916;2.336;2023-08-17T05:23:52;7.22;;;4.75;;
52972;SDS011;38837;48.916;2.336;2023-08-17T05:25:54;5.72;;;4.20;;
52972;SDS011;38837;48.916;2.336;2023-08-17T05:27:56;5.75;;;4.90;;
52972;SDS011;38837;48.916;2.336;2023-08-17T05:29:58;7.28;;;5.45;;
52972;SDS011;38837;48.916;2.336;2023-08-17T05:32:00;5.82;;;3.78;;
52972;SDS011;38837;48.916;2.336;2023-08-17T05:34:02;4.82;;;4.20;;
52972;SDS011;38837;48.916;2.336;2023-08-17T05:36:03;8.77;;;5.10;;
52972;SDS011;38837;48.916;2.336;2023-08-17T05:38:05;7.93;;;5.30;;
52972;SDS011;38837;48.916;2.336;2023-08-17T05:40:07;7.72;;;4.82;;
52972;SDS011;38837;48.916;2.336;2023-08-17T05:42:12;6.47;;;5.18;;
52972;SDS011;38837;48.916;2.336;2023-08-17T05:44:14;6.10;;;5.05;;
52972;SDS011;38837;48.916;2.336;2023-08-17T05:46:16;6.78;;;4.72;;
52972;SDS011;38837;48.916;2.336;2023-08-17T05:48:19;5.68;;;4.40;;
52972;SDS011;38837;48.916;2.336;2023-08-17T05:50:22;7.72;;;5.30;;
52972;SDS011;38837;48.916;2.336;2023-08-17T05:52:23;9.73;;;4.75;;
52972;SDS011;38837;48.916;2.336;2023-08-17T05:54:25;7.47;;;5.07;;
52972;SDS011;38837;48.916;2.336;2023-08-17T05:56:27;8.32;;;4.85;;
52972;SDS011;38837;48.916;2.336;2023-08-17T05:58:29;8.95;;;5.25;;
52972;SDS011;38837;48.916;2.336;2023-08-17T06:00:31;6.35;;;4.93;;
52972;SDS011;38837;48.916;2.336;2023-08-17T06:02:33;7.70;;;5.32;;
52972;SDS011;38837;48.916;2.336;2023-08-17T06:04:35;8.50;;;5.20;;
52972;SDS011;38837;48.916;2.336;2023-08-17T06:06:37;8.50;;;4.95;;
52972;SDS011;38837;48.916;2.336;2023-08-17T06:08:39;7.85;;;5.35;;
52972;SDS011;38837;48.916;2.336;2023-08-17T06:10:41;9.43;;;5.65;;
52972;SDS011;38837;48.916;2.336;2023-08-17T06:12:43;10.75;;;5.70;;
52972;SDS011;38837;48.916;2.336;2023-08-17T06:14:45;8.50;;;4.85;;
52972;SDS011;38837;48.916;2.336;2023-08-17T06:16:47;6.22;;;4.97;;
52972;SDS011;38837;48.916;2.336;2023-08-17T06:18:49;7.60;;;5.53;;
52972;SDS011;38837;48.916;2.336;2023-08-17T06:20:51;9.00;;;5.53;;
52972;SDS011;38837;48.916;2.336;2023-08-17T06:22:55;7.97;;;6.20;;
52972;SDS011;38837;48.916;2.336;2023-08-17T06:24:59;8.10;;;5.70;;
52972;SDS011;38837;48.916;2.336;2023-08-17T06:27:00;9.10;;;5.32;;
52972;SDS011;38837;48.916;2.336;2023-08-17T06:29:02;8.57;;;5.90;;
52972;SDS011;38837;48.916;2.336;2023-08-17T06:31:05;9.30;;;5.40;;
52972;SDS011;38837;48.916;2.336;2023-08-17T06:33:06;12.82;;;5.60;;
52972;SDS011;38837;48.916;2.336;2023-08-17T06:35:08;6.63;;;5.53;;
52972;SDS011;38837;48.916;2.336;2023-08-17T06:37:10;8.93;;;5.40;;
52972;SDS011;38837;48.916;2.336;2023-08-17T06:39:12;8.27;;;5.70;;
52972;SDS011;38837;48.916;2.336;2023-08-17T06:41:15;12.07;;;6.03;;
52972;SDS011;38837;48.916;2.336;2023-08-17T06:43:18;11.15;;;6.03;;
52972;SDS011;38837;48.916;2.336;2023-08-17T06:45:20;8.43;;;5.72;;
52972;SDS011;38837;48.916;2.336;2023-08-17T06:47:22;7.22;;;5.65;;
52972;SDS011;38837;48.916;2.336;2023-08-17T06:49:25;9.45;;;6.40;;
52972;SDS011;38837;48.916;2.336;2023-08-17T06:51:27;9.57;;;6.45;;
52972;SDS011;38837;48.916;2.336;2023-08-17T06:53:29;9.68;;;5.90;;
52972;SDS011;38837;48.916;2.336;2023-08-17T06:55:31;7.55;;;5.22;;
52972;SDS011;38837;48.916;2.336;2023-08-17T06:57:33;7.15;;;5.28;;
52972;SDS011;38837;48.916;2.336;2023-08-17T06:59:35;9.98;;;5.85;;
52972;SDS011;38837;48.916;2.336;2023-08-17T07:01:37;9.18;;;5.65;;
52972;SDS011;38837;48.916;2.336;2023-08-17T07:03:39;9.40;;;6.63;;
52972;SDS011;38837;48.916;2.336;2023-08-17T07:05:41;9.48;;;6.07;;
52972;SDS011;38837;48.916;2.336;2023-08-17T07:07:43;11.18;;;6.45;;
52972;SDS011;38837;48.916;2.336;2023-08-17T07:09:45;8.02;;;6.05;;
52972;SDS011;38837;48.916;2.336;2023-08-17T07:11:47;13.30;;;6.45;;
52972;SDS011;38837;48.916;2.336;2023-08-17T07:13:49;13.10;;;8.43;;
52972;SDS011;38837;48.916;2.336;2023-08-17T07:15:51;11.50;;;7.32;;
52972;SDS011;38837;48.916;2.336;2023-08-17T07:17:53;15.70;;;7.40;;
52972;SDS011;38837;48.916;2.336;2023-08-17T07:19:55;12.70;;;7.45;;
52972;SDS011;38837;48.916;2.336;2023-08-17T07:22:16;10.02;;;7.03;;
52972;SDS011;38837;48.916;2.336;2023-08-17T07:24:18;11.20;;;7.15;;
52972;SDS011;38837;48.916;2.336;2023-08-17T07:26:21;10.60;;;7.85;;
52972;SDS011;38837;48.916;2.336;2023-08-17T07:28:24;10.87;;;7.83;;
52972;SDS011;38837;48.916;2.336;2023-08-17T07:30:26;12.48;;;8.57;;
52972;SDS011;38837;48.916;2.336;2023-08-17T07:32:27;13.93;;;8.52;;
52972;SDS011;38837;48.916;2.336;2023-08-17T07:34:29;19.70;;;8.77;;
52972;SDS011;38837;48.916;2.336;2023-08-17T07:36:32;14.95;;;9.43;;
52972;SDS011;38837;48.916;2.336;2023-08-17T07:38:35;15.98;;;8.57;;
52972;SDS011;38837;48.916;2.336;2023-08-17T07:40:37;13.90;;;8.50;;
52972;SDS011;38837;48.916;2.336;2023-08-17T07:42:39;15.98;;;9.52;;
52972;SDS011;38837;48.916;2.336;2023-08-17T07:44:41;14.40;;;9.70;;
52972;SDS011;38837;48.916;2.336;2023-08-17T07:46:43;17.58;;;11.55;;
52972;SDS011;38837;48.916;2.336;2023-08-17T07:48:45;24.77;;;12.13;;
52972;SDS011;38837;48.916;2.336;2023-08-17T07:50:50;19.02;;;11.00;;
52972;SDS011;38837;48.916;2.336;2023-08-17T07:52:53;17.75;;;10.93;;
52972;SDS011;38837;48.916;2.336;2023-08-17T07:54:55;16.70;;;10.65;;
52972;SDS011;38837;48.916;2.336;2023-08-17T07:56:57;18.25;;;10.38;;
52972;SDS011;38837;48.916;2.336;2023-08-17T07:58:59;15.18;;;10.10;;
52972;SDS011;38837;48.916;2.336;2023-08-17T08:01:01;19.98;;;11.65;;
52972;SDS011;38837;48.916;2.336;2023-08-17T08:05:07;21.08;;;11.32;;
52972;SDS011;38837;48.916;2.336;2023-08-17T08:07:09;17.30;;;10.13;;
52972;SDS011;38837;48.916;2.336;2023-08-17T08:09:11;23.13;;;13.60;;
52972;SDS011;38837;48.916;2.336;2023-08-17T08:11:13;23.30;;;13.63;;
52972;SDS011;38837;48.916;2.336;2023-08-17T08:13:15;30.00;;;16.58;;
52972;SDS011;38837;48.916;2.336;2023-08-17T08:15:18;23.10;;;14.38;;
52972;SDS011;38837;48.916;2.336;2023-08-17T08:17:20;20.70;;;11.80;;
52972;SDS011;38837;48.916;2.336;2023-08-17T08:19:22;25.20;;;14.57;;
52972;SDS011;38837;48.916;2.336;2023-08-17T08:21:24;25.13;;;15.20;;
52972;SDS011;38837;48.916;2.336;2023-08-17T08:23:28;22.98;;;15.02;;
52972;SDS011;38837;48.916;2.336;2023-08-17T08:25:30;28.88;;;16.45;;
52972;SDS011;38837;48.916;2.336;2023-08-17T08:27:32;25.00;;;14.32;;
52972;SDS011;38837;48.916;2.336;2023-08-17T08:29:34;23.88;;;12.88;;
52972;SDS011;38837;48.916;2.336;2023-08-17T08:31:36;15.90;;;11.68;;
52972;SDS011;38837;48.916;2.336;2023-08-17T08:33:38;31.65;;;15.55;;
52972;SDS011;38837;48.916;2.336;2023-08-17T08:35:40;18.85;;;13.15;;
52972;SDS011;38837;48.916;2.336;2023-08-17T08:37:42;42.72;;;15.75;;
52972;SDS011;38837;48.916;2.336;2023-08-17T08:39:53;24.42;;;15.27;;
52972;SDS011;38837;48.916;2.336;2023-08-17T08:41:56;27.17;;;16.15;;
52972;SDS011;38837;48.916;2.336;2023-08-17T08:43:59;29.33;;;15.82;;
52972;SDS011;38837;48.916;2.336;2023-08-17T08:46:01;22.48;;;13.77;;
52972;SDS011;38837;48.916;2.336;2023-08-17T08:48:03;22.15;;;14.15;;
52972;SDS011;38837;48.916;2.336;2023-08-17T08:50:06;24.65;;;13.60;;
52972;SDS011;38837;48.916;2.336;2023-08-17T08:52:11;28.63;;;15.27;;
52972;SDS011;38837;48.916;2.336;2023-08-17T08:54:18;25.58;;;16.10;;
52972;SDS011;38837;48.916;2.336;2023-08-17T08:56:26;25.63;;;14.57;;
52972;SDS011;38837;48.916;2.336;2023-08-17T08:58:29;21.85;;;14.88;;
52972;SDS011;38837;48.916;2.336;2023-08-17T09:00:32;23.58;;;14.55;;
52972;SDS011;38837;48.916;2.336;2023-08-17T09:02:35;24.30;;;16.47;;
52972;SDS011;38837;48.916;2.336;2023-08-17T09:04:38;25.33;;;15.82;;
52972;SDS011;38837;48.916;2.336;2023-08-17T09:06:40;27.75;;;15.75;;
52972;SDS011;38837;48.916;2.336;2023-08-17T09:08:45;22.17;;;13.25;;
52972;SDS011;38837;48.916;2.336;2023-08-17T09:10:49;22.90;;;14.93;;
52972;SDS011;38837;48.916;2.336;2023-08-17T09:12:50;24.10;;;16.73;;
52972;SDS011;38837;48.916;2.336;2023-08-17T09:14:53;25.10;;;14.85;;
52972;SDS011;38837;48.916;2.336;2023-08-17T09:16:57;24.27;;;13.80;;
52972;SDS011;38837;48.916;2.336;2023-08-17T09:19:00;23.70;;;16.13;;
52972;SDS011;38837;48.916;2.336;2023-08-17T09:21:02;25.17;;;15.77;;
52972;SDS011;38837;48.916;2.336;2023-08-17T09:23:04;21.52;;;14.95;;
52972;SDS011;38837;48.916;2.336;2023-08-17T09:25:11;22.63;;;15.60;;
52972;SDS011;38837;48.916;2.336;2023-08-17T09:27:24;24.73;;;14.70;;
52972;SDS011;38837;48.916;2.336;2023-08-17T09:29:26;22.17;;;15.35;;
52972;SDS011;38837;48.916;2.336;2023-08-17T09:31:30;21.33;;;13.52;;
52972;SDS011;38837;48.916;2.336;2023-08-17T09:33:32;22.83;;;14.05;;
52972;SDS011;38837;48.916;2.336;2023-08-17T09:35:34;20.75;;;13.90;;
52972;SDS011;38837;48.916;2.336;2023-08-17T09:37:36;26.90;;;15.75;;
52972;SDS011;38837;48.916;2.336;2023-08-17T09:39:38;22.10;;;14.77;;
52972;SDS011;38837;48.916;2.336;2023-08-17T09:41:42;24.55;;;15.57;;
52972;SDS011;38837;48.916;2.336;2023-08-17T09:43:48;20.95;;;14.65;;
52972;SDS011;38837;48.916;2.336;2023-08-17T09:45:50;21.88;;;14.85;;
52972;SDS011;38837;48.916;2.336;2023-08-17T09:47:52;22.95;;;14.57;;
52972;SDS011;38837;48.916;2.336;2023-08-17T09:49:54;24.17;;;14.43;;
52972;SDS011;38837;48.916;2.336;2023-08-17T09:51:58;23.10;;;15.02;;
52972;SDS011;38837;48.916;2.336;2023-08-17T09:54:02;20.02;;;14.38;;
52972;SDS011;38837;48.916;2.336;2023-08-17T09:56:07;25.20;;;13.93;;
52972;SDS011;38837;48.916;2.336;2023-08-17T09:58:09;24.08;;;14.98;;
52972;SDS011;38837;48.916;2.336;2023-08-17T10:00:16;19.80;;;14.07;;
52972;SDS011;38837;48.916;2.336;2023-08-17T10:02:22;21.35;;;13.30;;
52972;SDS011;38837;48.916;2.336;2023-08-17T10:04:26;23.80;;;15.02;;
52972;SDS011;38837;48.916;2.336;2023-08-17T10:06:31;23.77;;;14.20;;
52972;SDS011;38837;48.916;2.336;2023-08-17T10:10:45;24.35;;;13.25;;
52972;SDS011;38837;48.916;2.336;2023-08-17T10:15:10;19.08;;;13.45;;
52972;SDS011;38837;48.916;2.336;2023-08-17T10:17:21;18.48;;;13.65;;
52972;SDS011;38837;48.916;2.336;2023-08-17T10:22:19;18.63;;;12.43;;
52972;SDS011;38837;48.916;2.336;2023-08-17T10:24:21;20.65;;;12.85;;
52972;SDS011;38837;48.916;2.336;2023-08-17T10:26:23;21.38;;;14.50;;
52972;SDS011;38837;48.916;2.336;2023-08-17T10:28:27;28.52;;;12.90;;
52972;SDS011;38837;48.916;2.336;2023-08-17T10:30:29;20.52;;;13.10;;
52972;SDS011;38837;48.916;2.336;2023-08-17T10:32:32;16.85;;;12.50;;
52972;SDS011;38837;48.916;2.336;2023-08-17T10:34:34;17.63;;;12.52;;
52972;SDS011;38837;48.916;2.336;2023-08-17T10:36:37;16.95;;;12.77;;
52972;SDS011;38837;48.916;2.336;2023-08-17T10:38:40;22.20;;;12.48;;
52972;SDS011;38837;48.916;2.336;2023-08-17T10:40:42;15.55;;;11.90;;
52972;SDS011;38837;48.916;2.336;2023-08-17T10:42:45;20.00;;;12.75;;
52972;SDS011;38837;48.916;2.336;2023-08-17T10:44:56;15.82;;;11.82;;
52972;SDS011;38837;48.916;2.336;2023-08-17T10:46:58;16.65;;;11.98;;
52972;SDS011;38837;48.916;2.336;2023-08-17T10:49:27;17.23;;;11.70;;
52972;SDS011;38837;48.916;2.336;2023-08-17T10:51:28;16.10;;;11.23;;
52972;SDS011;38837;48.916;2.336;2023-08-17T10:53:40;17.75;;;11.73;;
52972;SDS011;38837;48.916;2.336;2023-08-17T10:55:45;16.20;;;10.85;;
52972;SDS011;38837;48.916;2.336;2023-08-17T10:57:53;13.38;;;9.80;;
52972;SDS011;38837;48.916;2.336;2023-08-17T11:00:08;16.20;;;10.63;;
52972;SDS011;38837;48.916;2.336;2023-08-17T11:02:12;12.55;;;9.75;;
52972;SDS011;38837;48.916;2.336;2023-08-17T11:04:17;18.55;;;11.05;;
52972;SDS011;38837;48.916;2.336;2023-08-17T11:06:19;14.85;;;11.02;;
52972;SDS011;38837;48.916;2.336;2023-08-17T11:08:22;15.73;;;11.75;;
52972;SDS011;38837;48.916;2.336;2023-08-17T11:10:34;19.38;;;11.55;;
52972;SDS011;38837;48.916;2.336;2023-08-17T11:12:36;18.30;;;11.77;;
52972;SDS011;38837;48.916;2.336;2023-08-17T11:14:38;17.08;;;10.95;;
52972;SDS011;38837;48.916;2.336;2023-08-17T11:16:40;14.80;;;10.38;;
52972;SDS011;38837;48.916;2.336;2023-08-17T11:18:43;18.52;;;11.02;;
52972;SDS011;38837;48.916;2.336;2023-08-17T11:20:45;16.23;;;10.80;;
52972;SDS011;38837;48.916;2.336;2023-08-17T11:22:49;16.17;;;10.90;;
52972;SDS011;38837;48.916;2.336;2023-08-17T11:24:51;15.80;;;11.43;;
52972;SDS011;38837;48.916;2.336;2023-08-17T11:26:53;17.52;;;10.57;;
52972;SDS011;38837;48.916;2.336;2023-08-17T11:28:55;15.43;;;10.25;;
52972;SDS011;38837;48.916;2.336;2023-08-17T11:30:58;18.00;;;10.75;;
52972;SDS011;38837;48.916;2.336;2023-08-17T11:33:01;18.85;;;10.43;;
52972;SDS011;38837;48.916;2.336;2023-08-17T11:35:04;15.00;;;10.30;;
52972;SDS011;38837;48.916;2.336;2023-08-17T11:37:06;16.55;;;9.77;;
52972;SDS011;38837;48.916;2.336;2023-08-17T11:39:08;14.95;;;10.13;;
52972;SDS011;38837;48.916;2.336;2023-08-17T11:41:11;15.75;;;9.90;;
52972;SDS011;38837;48.916;2.336;2023-08-17T11:43:16;15.40;;;10.60;;
52972;SDS011;38837;48.916;2.336;2023-08-17T11:45:23;12.88;;;9.43;;
52972;SDS011;38837;48.916;2.336;2023-08-17T11:47:28;16.60;;;9.95;;
52972;SDS011;38837;48.916;2.336;2023-08-17T11:49:33;12.88;;;9.32;;
52972;SDS011;38837;48.916;2.336;2023-08-17T11:51:39;13.13;;;8.90;;
52972;SDS011;38837;48.916;2.336;2023-08-17T11:53:43;13.50;;;9.80;;
52972;SDS011;38837;48.916;2.336;2023-08-17T11:55:50;15.30;;;8.70;;
52972;SDS011;38837;48.916;2.336;2023-08-17T11:57:54;11.82;;;8.18;;
52972;SDS011;38837;48.916;2.336;2023-08-17T11:59:57;11.60;;;9.20;;
52972;SDS011;38837;48.916;2.336;2023-08-17T12:04:04;11.55;;;7.60;;
52972;SDS011;38837;48.916;2.336;2023-08-17T12:06:07;15.65;;;7.63;;
52972;SDS011;38837;48.916;2.336;2023-08-17T12:08:09;12.40;;;7.28;;
52972;SDS011;38837;48.916;2.336;2023-08-17T12:10:11;12.10;;;8.60;;
52972;SDS011;38837;48.916;2.336;2023-08-17T12:12:16;11.13;;;7.65;;
52972;SDS011;38837;48.916;2.336;2023-08-17T12:14:26;11.98;;;7.10;;
52972;SDS011;38837;48.916;2.336;2023-08-17T12:16:30;11.57;;;7.32;;
52972;SDS011;38837;48.916;2.336;2023-08-17T12:18:32;9.65;;;6.93;;
52972;SDS011;38837;48.916;2.336;2023-08-17T12:20:35;11.18;;;7.53;;
52972;SDS011;38837;48.916;2.336;2023-08-17T12:22:37;9.80;;;7.28;;
52972;SDS011;38837;48.916;2.336;2023-08-17T12:24:41;10.50;;;7.95;;
52972;SDS011;38837;48.916;2.336;2023-08-17T12:26:43;11.45;;;7.68;;